Brickton, Illinois
Current Conditions -  °F | °C
As of 8:35 AM on Friday 28 Nov 2014 (Local Time) from KVYS Reporting Station
Scattered Clouds Scattered Clouds  
Wind Chill: 10°   Ceiling: Unl
Heat Index: 22°   Visibility: 10mi
Dew Point: 16°   Wind: 13mph
Humidity: 77%   Direction: 140°SE
Pressure: 30.22"   Gusts: 17mph
Location:  41.4349°N, 88.8687°W
Report Text: KVYS 281435Z AUTO 14011G15KT 10SM SCT110 M06/M09 A3022 RMK AO2 T10561090
Loading
Personal Weather Stations






























Interactive Weather Map New forecast layout! Learn more

10-Day Weather Forecast

Advertisements
Track Severe Weather on mobile